El Paso, TX (88544)

11:58 AM MST on January 26, 2015 (GMT -0700)
Vista del Sol | Change Station
CLOSE
Current Station
Personal Weather Station
Location: El Paso, TX
Elevation: 4010 ft
Nearby Weather Stations

Elev 4010 ft 31.76 °N, 106.34 °W | Updated 4 minutes ago

Mostly Cloudy
Mostly Cloudy
56.6 °F
Feels Like 56.6 °F
N
1.0
Wind Variable Wind from WNW
Gusts 3.0 mph

Today
High -- | Low -- °F
--% Chance of Precip.
Yesterday
High -- | Low -- °F
Precip. -- in
7:02 AM 5:34 PM
Waxing Crescent, 45% visible
Pressure 30.25 in
Visibility 10.0 miles
Clouds Mostly Cloudy 23000 ft
Dew Point 31 °F
Humidity 38%
Rainfall 0.00 in
Snow Depth Not available.
UV 3 out of 12
Pollen 4.90 out of 12
Air Quality Not available.
Flu Activity Not available.
METAR KELP 261851Z 35006KT 10SM BKN230 13/M02 A3032 RMK AO2 SLP243 T01331017

More Conditions Fewer Conditions

Pressure 30.25 in
Visibility 10.0 miles
Clouds Mostly Cloudy 23000 ft
Dew Point 31 °F
Humidity 38%
Rainfall 0.00 in
Snow Depth Not available.
UV 3 out of 12
Pollen 4.90 out of 12
Air Quality Not available.
Flu Activity Not available.
METAR KELP 261851Z 35006KT 10SM BKN230 13/M02 A3032 RMK AO2 SLP243 T01331017

More Conditions Fewer Conditions

10-Day Weather Forecast

Almanac

Astronomy

Jan. 26, 2015 Rise Set
Actual Time
Civil Twilight
Nautical Twilight
Astronomical Twilight
Moon
Length of Visible Light
Length of Day
Tomorrow will be .
, % of the Moon is Illuminated

Today's Extremes

State Highs State Lows

Community

WunderPhotos

Upload Photos

1,790,312 photos uploaded!

WunderBlogs® & News

Nearby

Air Quality

  Air Quality AQ Index Pollutant
Not available.

Snow Depth

Station Depth Elevation

Earthquake Activity

City Distance Mag. Time & Date
Minimum magnitude displayed is 2.5.

Coastal Water Temperatures

Place Temperature

Nearby Weather Stations